Time;durP1;ratioP1;P1;durP2;ratioP2;P2;SDS_P1;SDS_P2;PMS_P1;PMS_P2;Temp;Humidity;BMP_temperature;BMP_pressure;BME280_temperature;BME280_humidity;BME280_pressure;Samples;Min_cycle;Max_cycle;Signal;HPM_P1;HPM_P2
2023/07/28 00:00:34;;;;;;;3.15;2.20;;;19.00;99.90;;;;;;5071058;28;20033;-71
2023/07/28 00:03:00;;;;;;;6.15;2.45;;;19.00;99.90;;;;;;5072031;28;20039;-70
2023/07/28 00:05:25;;;;;;;4.00;2.28;;;19.00;99.90;;;;;;5071676;28;20336;-70
2023/07/28 00:07:52;;;;;;;3.03;2.72;;;19.00;99.90;;;;;;5072433;28;20051;-71
2023/07/28 00:10:18;;;;;;;6.82;2.95;;;19.00;99.90;;;;;;5072266;28;20504;-70
2023/07/28 00:12:43;;;;;;;2.70;2.47;;;19.00;99.90;;;;;;5071376;28;20358;-70
2023/07/28 00:15:09;;;;;;;4.32;2.70;;;18.90;99.90;;;;;;5071005;28;20035;-70
2023/07/28 00:17:35;;;;;;;3.67;2.15;;;18.90;99.90;;;;;;5072326;28;20021;-69
2023/07/28 00:20:01;;;;;;;6.47;2.33;;;19.00;99.90;;;;;;5070639;28;20116;-70
2023/07/28 00:22:27;;;;;;;2.25;1.88;;;18.90;99.90;;;;;;5071786;28;20335;-70
2023/07/28 00:24:52;;;;;;;1.80;1.63;;;18.90;99.90;;;;;;5071727;28;20098;-70
2023/07/28 00:27:18;;;;;;;2.67;1.63;;;18.90;99.90;;;;;;5071865;28;20043;-70
2023/07/28 00:29:44;;;;;;;3.47;2.00;;;18.90;99.90;;;;;;5072494;28;20286;-71
2023/07/28 00:32:09;;;;;;;1.75;1.60;;;18.90;99.90;;;;;;5071537;28;20055;-71
2023/07/28 00:34:35;;;;;;;5.05;1.77;;;18.90;99.90;;;;;;5071621;28;20406;-71
2023/07/28 00:37:01;;;;;;;5.18;1.70;;;18.90;99.90;;;;;;5071363;28;20040;-71
2023/07/28 00:39:26;;;;;;;3.22;1.98;;;18.90;99.90;;;;;;5071367;28;20052;-71
2023/07/28 00:41:52;;;;;;;2.75;1.70;;;18.90;99.90;;;;;;5071726;28;20032;-70
2023/07/28 00:44:18;;;;;;;4.30;1.77;;;18.90;99.90;;;;;;5070811;28;20125;-70
2023/07/28 00:46:45;;;;;;;4.20;1.85;;;19.00;99.90;;;;;;5070325;28;20036;-69
2023/07/28 00:49:11;;;;;;;3.70;1.77;;;18.90;99.90;;;;;;5071386;28;20578;-71
2023/07/28 00:51:37;;;;;;;2.22;1.67;;;18.90;99.90;;;;;;5071288;28;20106;-70
2023/07/28 00:54:05;;;;;;;3.85;1.70;;;18.90;99.90;;;;;;5071138;28;20024;-70
2023/07/28 00:56:31;;;;;;;2.17;1.98;;;18.90;99.90;;;;;;5070211;28;20262;-71
2023/07/28 00:58:57;;;;;;;2.30;1.63;;;18.90;99.90;;;;;;5070924;28;20113;-71
2023/07/28 01:01:23;;;;;;;2.88;1.70;;;18.90;99.90;;;;;;5070886;28;20044;-70
2023/07/28 01:03:50;;;;;;;3.30;2.05;;;18.90;99.90;;;;;;5070983;28;20125;-71
2023/07/28 01:06:37;;;;;;;3.45;1.90;;;19.00;99.90;;;;;;5070800;28;20375;-70
2023/07/28 01:09:09;;;;;;;2.07;1.77;;;19.00;99.90;;;;;;5071309;28;20021;-71
2023/07/28 01:11:35;;;;;;;3.08;2.15;;;18.90;99.90;;;;;;5071499;28;20029;-69
2023/07/28 01:14:00;;;;;;;2.42;1.80;;;18.90;99.90;;;;;;5069706;28;20032;-70
2023/07/28 01:16:26;;;;;;;2.75;2.22;;;18.90;99.90;;;;;;5069897;28;20082;-70
2023/07/28 01:18:52;;;;;;;5.95;1.90;;;18.90;99.90;;;;;;5070654;28;20097;-70
2023/07/28 01:21:22;;;;;;;7.43;2.15;;;19.00;99.90;;;;;;5070728;28;20032;-70
2023/07/28 01:24:15;;;;;;;2.90;1.88;;;18.90;99.90;;;;;;5071055;28;20067;-71
2023/07/28 01:26:41;;;;;;;1.88;1.70;;;18.90;99.90;;;;;;5070726;28;20123;-71
2023/07/28 01:29:07;;;;;;;4.35;2.20;;;18.90;99.90;;;;;;5069749;28;20532;-71
2023/07/28 01:31:33;;;;;;;1.70;1.60;;;18.90;99.90;;;;;;5070535;28;20028;-70
2023/07/28 01:33:58;;;;;;;4.88;1.70;;;18.90;99.90;;;;;;5070355;28;20048;-71
2023/07/28 01:36:24;;;;;;;2.35;1.77;;;18.80;99.90;;;;;;5082889;28;20111;-71
2023/07/28 01:38:50;;;;;;;1.73;1.60;;;18.90;99.90;;;;;;5091083;28;20065;-69
2023/07/28 01:41:16;;;;;;;4.85;1.85;;;18.90;99.90;;;;;;5090796;28;20020;-71
2023/07/28 01:43:44;;;;;;;5.00;1.55;;;18.90;99.90;;;;;;5090682;28;20602;-71
2023/07/28 01:46:09;;;;;;;2.08;1.63;;;18.90;99.90;;;;;;5090873;28;20518;-70
2023/07/28 01:48:35;;;;;;;2.38;1.90;;;18.90;99.90;;;;;;5090696;28;20119;-70
2023/07/28 01:51:01;;;;;;;1.80;1.52;;;18.80;99.90;;;;;;5090832;28;20020;-70
2023/07/28 01:53:26;;;;;;;1.85;1.67;;;18.80;99.90;;;;;;5091034;28;20103;-71
2023/07/28 01:55:52;;;;;;;3.53;1.77;;;18.90;99.90;;;;;;5090684;28;20032;-70
2023/07/28 01:58:18;;;;;;;6.95;1.83;;;18.90;99.90;;;;;;5090999;28;20060;-70
2023/07/28 02:00:46;;;;;;;2.40;1.90;;;18.90;99.90;;;;;;5090606;28;20036;-71
2023/07/28 02:03:11;;;;;;;4.72;1.92;;;18.80;99.90;;;;;;5089722;28;20097;-70
2023/07/28 02:05:37;;;;;;;2.85;1.50;;;18.80;99.90;;;;;;5091160;28;20028;-70
2023/07/28 02:08:03;;;;;;;6.82;2.15;;;18.80;99.90;;;;;;5089248;28;20032;-70
2023/07/28 02:10:29;;;;;;;4.35;2.17;;;18.80;99.90;;;;;;5094299;28;20039;-72
2023/07/28 02:12:55;;;;;;;6.20;2.35;;;18.80;99.90;;;;;;5094949;28;20032;-71
2023/07/28 02:15:21;;;;;;;5.03;2.88;;;18.80;99.90;;;;;;5094599;28;20028;-70
2023/07/28 02:17:47;;;;;;;3.67;2.45;;;18.80;99.90;;;;;;5094987;28;20066;-70
2023/07/28 02:20:12;;;;;;;3.13;2.08;;;18.90;99.90;;;;;;5094776;28;20062;-71
2023/07/28 02:22:42;;;;;;;6.47;2.17;;;18.90;99.90;;;;;;5094240;28;20466;-71
2023/07/28 02:25:09;;;;;;;3.67;2.30;;;18.90;99.90;;;;;;5094572;28;20035;-70
2023/07/28 02:27:36;;;;;;;2.88;1.92;;;18.80;99.90;;;;;;5094286;28;20029;-71
2023/07/28 02:30:01;;;;;;;3.13;2.05;;;18.80;99.90;;;;;;5094368;28;20036;-70
2023/07/28 02:32:28;;;;;;;2.40;2.15;;;18.90;99.90;;;;;;5094399;28;20074;-70
2023/07/28 02:34:54;;;;;;;4.07;1.83;;;18.90;99.90;;;;;;5093119;28;20040;-71
2023/07/28 02:37:20;;;;;;;7.07;1.80;;;18.90;99.90;;;;;;5093005;28;20035;-71
2023/07/28 02:39:46;;;;;;;2.30;1.95;;;18.80;99.90;;;;;;5094042;28;20040;-70
2023/07/28 02:42:12;;;;;;;4.05;1.88;;;18.80;99.90;;;;;;5094137;28;20137;-70
2023/07/28 02:44:38;;;;;;;3.38;2.17;;;18.90;99.90;;;;;;5094535;28;20020;-70
2023/07/28 02:47:04;;;;;;;5.72;2.03;;;18.80;99.90;;;;;;5094061;28;20056;-70
2023/07/28 02:49:30;;;;;;;5.72;2.15;;;18.80;99.90;;;;;;5093942;28;20024;-70
2023/07/28 02:51:55;;;;;;;8.23;2.58;;;18.80;99.90;;;;;;5093822;28;20038;-71
2023/07/28 02:54:23;;;;;;;2.88;1.90;;;18.80;99.90;;;;;;5093958;28;20024;-71
2023/07/28 02:56:49;;;;;;;2.80;2.08;;;18.80;99.90;;;;;;5094396;28;20051;-70
2023/07/28 02:59:15;;;;;;;3.70;2.20;;;18.80;99.90;;;;;;5094161;28;20406;-71
2023/07/28 03:01:41;;;;;;;4.15;2.05;;;18.90;99.90;;;;;;5094008;28;20510;-72
2023/07/28 03:04:07;;;;;;;2.80;1.83;;;18.80;99.90;;;;;;5093347;28;20102;-72
2023/07/28 03:06:32;;;;;;;3.25;2.17;;;18.80;99.90;;;;;;5093573;28;20386;-70
2023/07/28 03:08:59;;;;;;;2.95;2.10;;;18.80;99.90;;;;;;5093488;28;20440;-70
2023/07/28 03:11:24;;;;;;;3.40;2.00;;;18.80;99.90;;;;;;5092993;28;20414;-71
2023/07/28 03:13:50;;;;;;;2.30;1.98;;;18.80;99.90;;;;;;5093376;28;20281;-69
2023/07/28 03:16:16;;;;;;;2.67;2.40;;;18.80;99.90;;;;;;5093305;28;20025;-71
2023/07/28 03:18:41;;;;;;;2.40;1.90;;;18.80;99.90;;;;;;5093215;28;20059;-71
2023/07/28 03:21:09;;;;;;;4.32;2.63;;;18.80;99.90;;;;;;5091848;28;20487;-69
2023/07/28 03:23:34;;;;;;;1.92;1.67;;;18.90;99.90;;;;;;5093785;28;20131;-69
2023/07/28 03:26:00;;;;;;;2.38;2.17;;;18.90;99.90;;;;;;5093532;28;20529;-70
2023/07/28 03:28:26;;;;;;;2.10;1.83;;;18.80;99.90;;;;;;5093258;28;20400;-70
2023/07/28 03:30:51;;;;;;;4.07;1.83;;;18.90;99.90;;;;;;5093091;28;20127;-71
2023/07/28 03:33:17;;;;;;;3.63;1.67;;;18.80;99.90;;;;;;5092809;28;20040;-70
2023/07/28 03:35:43;;;;;;;2.85;1.80;;;18.80;99.90;;;;;;5093568;28;20012;-70
2023/07/28 03:38:08;;;;;;;4.63;1.90;;;18.80;99.90;;;;;;5092994;28;20028;-71
2023/07/28 03:40:34;;;;;;;2.92;1.63;;;18.80;99.90;;;;;;5092602;28;20044;-70
2023/07/28 03:43:00;;;;;;;1.58;1.38;;;18.80;99.90;;;;;;5092764;28;20374;-70
2023/07/28 03:45:26;;;;;;;4.25;2.00;;;18.80;99.90;;;;;;5091646;28;20039;-69
2023/07/28 03:47:51;;;;;;;2.45;1.38;;;18.80;99.90;;;;;;5092401;28;20305;-71
2023/07/28 03:50:17;;;;;;;4.00;1.80;;;18.90;99.90;;;;;;5092028;28;20017;-72
2023/07/28 03:52:43;;;;;;;1.80;1.58;;;18.90;99.90;;;;;;5092612;28;20391;-71
2023/07/28 03:55:09;;;;;;;1.40;1.30;;;18.80;99.90;;;;;;5092941;28;20039;-71
2023/07/28 03:57:34;;;;;;;1.63;1.52;;;18.90;99.90;;;;;;5092650;28;20378;-70
2023/07/28 04:00:00;;;;;;;2.17;1.25;;;18.90;99.90;;;;;;5092319;28;20319;-69
2023/07/28 04:02:25;;;;;;;2.60;1.45;;;18.90;99.90;;;;;;5092741;28;20024;-70
2023/07/28 04:04:55;;;;;;;4.88;1.55;;;19.00;99.90;;;;;;5092608;28;20416;-70
2023/07/28 04:07:20;;;;;;;2.95;1.35;;;18.90;99.90;;;;;;5092638;28;20171;-70
2023/07/28 04:09:46;;;;;;;2.25;1.55;;;18.90;99.90;;;;;;5091451;28;20032;-70
2023/07/28 04:12:12;;;;;;;3.17;1.48;;;18.90;99.90;;;;;;5092373;28;20517;-70
2023/07/28 04:14:38;;;;;;;8.23;1.30;;;18.90;99.90;;;;;;5092517;28;20016;-70
2023/07/28 04:17:04;;;;;;;0.90;0.90;;;18.90;99.90;;;;;;5091953;28;20058;-71
2023/07/28 04:19:29;;;;;;;1.30;1.20;;;18.90;99.90;;;;;;5092045;28;20035;-71
2023/07/28 04:21:56;;;;;;;4.10;1.30;;;18.90;99.90;;;;;;5092010;28;20366;-71
2023/07/28 04:24:22;;;;;;;1.90;1.42;;;18.90;99.90;;;;;;5091792;28;20476;-70
2023/07/28 04:26:50;;;;;;;1.95;0.95;;;18.90;99.90;;;;;;5092725;28;20249;-71
2023/07/28 04:29:16;;;;;;;4.80;1.90;;;19.00;99.90;;;;;;5090931;28;20435;-70
2023/07/28 04:31:42;;;;;;;3.08;1.67;;;19.00;99.90;;;;;;5091062;28;20120;-69
2023/07/28 04:34:08;;;;;;;3.92;1.42;;;18.90;99.90;;;;;;5091793;28;20125;-70
2023/07/28 04:36:33;;;;;;;1.30;1.00;;;19.00;99.90;;;;;;5091920;28;20024;-70
2023/07/28 04:38:59;;;;;;;1.02;1.00;;;18.90;99.90;;;;;;5091908;28;20024;-71
2023/07/28 04:41:25;;;;;;;4.32;1.25;;;18.90;99.90;;;;;;5092139;28;20073;-69
2023/07/28 04:43:50;;;;;;;3.15;1.40;;;18.90;99.90;;;;;;5091793;28;20039;-69
2023/07/28 04:46:16;;;;;;;1.75;0.98;;;18.90;99.90;;;;;;5091567;28;20020;-71
2023/07/28 04:48:42;;;;;;;1.63;1.40;;;19.00;99.90;;;;;;5091456;28;20039;-70
2023/07/28 04:51:07;;;;;;;0.90;0.90;;;19.00;99.90;;;;;;5091405;28;20012;-72
2023/07/28 04:53:33;;;;;;;2.22;1.17;;;18.90;99.90;;;;;;5092285;28;20028;-71
2023/07/28 04:55:59;;;;;;;1.65;1.05;;;18.90;99.90;;;;;;5090217;28;20074;-69
2023/07/28 04:58:25;;;;;;;0.90;0.90;;;18.90;99.90;;;;;;5090207;28;20024;-70
2023/07/28 05:00:50;;;;;;;4.03;1.55;;;18.90;99.90;;;;;;5091142;28;20047;-69
2023/07/28 05:03:16;;;;;;;1.77;1.48;;;18.90;99.90;;;;;;5091255;28;20039;-70
2023/07/28 05:05:45;;;;;;;1.10;1.00;;;19.00;99.90;;;;;;5091634;28;20331;-71
2023/07/28 05:08:11;;;;;;;1.67;1.20;;;19.00;99.90;;;;;;5091597;28;20039;-70
2023/07/28 05:10:36;;;;;;;1.08;0.98;;;19.00;99.90;;;;;;5091095;28;20032;-69
2023/07/28 05:13:05;;;;;;;2.53;1.38;;;19.10;99.90;;;;;;5091534;28;20032;-71
2023/07/28 05:15:30;;;;;;;1.60;1.27;;;19.00;99.90;;;;;;5091103;28;20119;-69
2023/07/28 05:17:56;;;;;;;2.17;1.10;;;19.10;99.90;;;;;;5091228;28;20153;-70
2023/07/28 05:20:22;;;;;;;2.42;1.08;;;19.10;99.90;;;;;;5090230;28;20047;-69
2023/07/28 05:22:48;;;;;;;2.28;1.20;;;19.10;99.90;;;;;;5091121;28;20052;-70
2023/07/28 05:25:13;;;;;;;4.22;1.23;;;19.10;99.90;;;;;;5091132;28;20239;-70
2023/07/28 05:27:39;;;;;;;3.97;1.50;;;19.10;99.90;;;;;;5091044;28;20109;-70
2023/07/28 05:30:06;;;;;;;1.80;1.25;;;19.10;99.90;;;;;;5090797;28;20023;-70
2023/07/28 05:32:31;;;;;;;4.90;1.70;;;19.00;99.90;;;;;;5091082;28;20048;-69
2023/07/28 05:34:57;;;;;;;2.30;1.30;;;19.10;99.90;;;;;;5090754;28;20096;-70
2023/07/28 05:37:23;;;;;;;2.63;1.70;;;19.20;99.90;;;;;;5090406;28;20024;-70
2023/07/28 05:39:49;;;;;;;2.00;1.50;;;19.20;99.90;;;;;;5090623;28;20480;-70
2023/07/28 05:42:15;;;;;;;2.35;1.50;;;19.10;99.90;;;;;;5090477;28;20101;-69
2023/07/28 05:44:40;;;;;;;5.38;1.77;;;19.10;99.90;;;;;;5090621;28;20458;-70
2023/07/28 05:47:06;;;;;;;4.15;2.38;;;19.20;99.90;;;;;;5090726;28;20043;-70
2023/07/28 05:49:32;;;;;;;3.60;2.30;;;19.20;99.90;;;;;;5090356;28;20039;-70
2023/07/28 05:51:58;;;;;;;2.08;1.65;;;19.20;99.90;;;;;;5090426;28;20043;-70
2023/07/28 05:54:23;;;;;;;6.70;2.60;;;19.20;99.90;;;;;;5090482;28;20028;-70
2023/07/28 05:56:52;;;;;;;5.43;2.38;;;19.20;99.90;;;;;;5091120;28;20111;-71
2023/07/28 05:59:18;;;;;;;2.40;2.20;;;19.20;99.90;;;;;;5090767;28;20123;-70
2023/07/28 06:01:44;;;;;;;4.97;2.42;;;19.20;99.90;;;;;;5090570;28;20119;-70
2023/07/28 06:04:10;;;;;;;2.97;2.33;;;19.20;99.90;;;;;;5089301;28;20080;-70
2023/07/28 06:06:36;;;;;;;4.35;2.22;;;19.30;99.90;;;;;;5090349;28;20028;-70
2023/07/28 06:09:02;;;;;;;2.58;2.17;;;19.30;99.90;;;;;;5090269;28;20051;-70
2023/07/28 06:11:28;;;;;;;2.60;2.15;;;19.30;99.90;;;;;;5090532;28;20039;-70
2023/07/28 06:13:53;;;;;;;3.08;2.45;;;19.30;99.90;;;;;;5090338;28;20127;-70
2023/07/28 06:16:19;;;;;;;2.90;2.15;;;19.30;99.90;;;;;;5090364;28;20029;-70
2023/07/28 06:18:45;;;;;;;3.35;2.53;;;19.30;99.90;;;;;;5090131;28;20044;-70
2023/07/28 06:21:10;;;;;;;3.15;2.17;;;19.30;99.90;;;;;;5090209;28;20032;-69
2023/07/28 06:23:36;;;;;;;2.70;1.85;;;19.30;99.90;;;;;;5089559;28;20358;-70
2023/07/28 06:26:02;;;;;;;2.90;2.05;;;19.30;99.90;;;;;;5090262;28;20362;-70
2023/07/28 06:28:27;;;;;;;5.47;1.70;;;19.30;99.90;;;;;;5090048;28;20032;-70
2023/07/28 06:30:57;;;;;;;3.25;2.00;;;19.30;99.90;;;;;;5089072;28;20047;-68
2023/07/28 06:33:23;;;;;;;3.22;2.20;;;19.40;99.90;;;;;;5089658;28;20040;-70
2023/07/28 06:35:49;;;;;;;3.80;2.05;;;19.30;99.90;;;;;;5089483;28;20497;-70
2023/07/28 06:38:15;;;;;;;4.43;2.33;;;19.30;99.90;;;;;;5090170;28;20028;-70
2023/07/28 06:40:41;;;;;;;3.33;2.17;;;19.30;99.90;;;;;;5090176;28;20040;-71
2023/07/28 06:43:07;;;;;;;2.65;1.70;;;19.30;99.90;;;;;;5089796;28;20115;-69
2023/07/28 06:45:33;;;;;;;2.85;2.38;;;19.40;99.90;;;;;;5088762;28;20028;-70
2023/07/28 06:47:58;;;;;;;6.05;2.38;;;19.40;99.90;;;;;;5090172;28;20034;-69
2023/07/28 06:50:24;;;;;;;5.38;2.25;;;19.40;99.90;;;;;;5090379;28;20026;-70
2023/07/28 06:52:50;;;;;;;4.25;2.15;;;19.50;99.90;;;;;;5089788;28;20450;-70
2023/07/28 06:55:17;;;;;;;5.13;2.47;;;19.40;99.90;;;;;;5090289;28;20365;-70
2023/07/28 06:57:42;;;;;;;2.58;1.95;;;19.40;99.90;;;;;;5093651;28;20032;-69
2023/07/28 07:00:11;;;;;;;2.85;2.00;;;19.40;99.90;;;;;;5093283;28;20104;-70
2023/07/28 07:02:37;;;;;;;4.55;2.05;;;19.40;99.90;;;;;;5093905;28;20416;-70
2023/07/28 07:05:03;;;;;;;4.88;2.58;;;19.40;99.90;;;;;;5093715;28;20048;-69
2023/07/28 07:07:29;;;;;;;1.65;1.55;;;19.50;99.90;;;;;;5092224;28;20040;-70
2023/07/28 07:09:55;;;;;;;2.70;1.80;;;19.50;99.90;;;;;;5093278;28;20202;-70
2023/07/28 07:12:21;;;;;;;4.45;2.15;;;19.50;99.90;;;;;;5093391;28;20515;-69
2023/07/28 07:14:47;;;;;;;2.15;1.95;;;19.50;99.90;;;;;;5093679;28;20085;-69
2023/07/28 07:17:13;;;;;;;2.75;1.98;;;19.50;99.90;;;;;;5093043;28;20053;-69
2023/07/28 07:19:39;;;;;;;3.17;1.75;;;19.60;99.90;;;;;;5093161;28;20527;-69
2023/07/28 07:22:05;;;;;;;2.20;2.00;;;19.60;99.90;;;;;;5092222;28;20048;-70
2023/07/28 07:24:31;;;;;;;1.80;1.70;;;19.60;99.90;;;;;;5093129;28;20035;-69
2023/07/28 07:26:56;;;;;;;2.80;2.38;;;19.60;99.90;;;;;;5092893;28;20020;-70
2023/07/28 07:29:22;;;;;;;2.75;2.40;;;19.70;99.90;;;;;;5093536;28;20051;-69
2023/07/28 07:31:48;;;;;;;3.65;2.10;;;19.70;99.90;;;;;;5092733;28;20040;-70
2023/07/28 07:34:14;;;;;;;3.50;2.30;;;19.70;99.90;;;;;;5091859;28;20036;-69
2023/07/28 07:36:40;;;;;;;2.78;1.95;;;19.80;99.90;;;;;;5092725;28;20032;-70
2023/07/28 07:39:06;;;;;;;4.63;2.70;;;19.80;99.90;;;;;;5091676;28;20314;-70
2023/07/28 07:41:31;;;;;;;3.53;2.28;;;19.90;99.90;;;;;;5092218;28;20457;-67
2023/07/28 07:43:57;;;;;;;3.63;1.90;;;19.90;99.90;;;;;;5092636;28;20028;-69
2023/07/28 07:46:23;;;;;;;4.07;2.33;;;20.00;99.90;;;;;;5092509;28;20032;-70
2023/07/28 07:48:49;;;;;;;2.80;2.45;;;20.00;99.90;;;;;;5092488;28;20476;-69
2023/07/28 07:51:15;;;;;;;3.58;2.55;;;20.00;99.90;;;;;;5092450;28;20142;-69
2023/07/28 07:53:40;;;;;;;3.58;2.88;;;20.10;99.90;;;;;;5092977;28;20346;-70
2023/07/28 07:56:08;;;;;;;4.03;2.45;;;20.10;99.90;;;;;;5092468;28;20465;-69
2023/07/28 07:58:34;;;;;;;4.03;2.90;;;20.10;99.90;;;;;;5091442;28;20032;-68
2023/07/28 08:01:00;;;;;;;2.70;2.45;;;20.20;99.90;;;;;;5092663;28;20037;-69
2023/07/28 08:03:27;;;;;;;3.40;2.60;;;20.20;99.90;;;;;;5091195;28;20347;-69
2023/07/28 08:05:53;;;;;;;3.92;2.85;;;20.20;99.90;;;;;;5092370;28;20016;-68
2023/07/28 08:08:19;;;;;;;4.63;2.63;;;20.20;99.90;;;;;;5092611;28;20020;-68
2023/07/28 08:10:47;;;;;;;4.30;2.75;;;20.20;99.90;;;;;;5092137;28;20111;-70
2023/07/28 08:13:13;;;;;;;6.65;2.95;;;20.20;99.90;;;;;;5092103;28;20042;-69
2023/07/28 08:15:38;;;;;;;3.03;2.45;;;20.20;99.90;;;;;;5092297;28;20036;-69
2023/07/28 08:18:04;;;;;;;3.40;3.10;;;20.30;99.90;;;;;;5092014;28;20285;-70
2023/07/28 08:20:29;;;;;;;3.28;2.30;;;20.30;99.90;;;;;;5092545;28;20114;-69
2023/07/28 08:22:55;;;;;;;2.22;2.03;;;20.40;99.90;;;;;;5091870;28;20028;-68
2023/07/28 08:25:22;;;;;;;3.13;2.70;;;20.50;99.90;;;;;;5092035;28;20506;-69
2023/07/28 08:27:48;;;;;;;2.57;2.20;;;20.50;99.90;;;;;;5092077;28;20448;-69
2023/07/28 08:30:15;;;;;;;2.83;2.25;;;20.60;99.90;;;;;;5091876;28;20253;-68
2023/07/28 08:32:41;;;;;;;2.53;2.15;;;20.80;99.90;;;;;;5092100;28;20048;-69
2023/07/28 08:35:08;;;;;;;2.20;1.50;;;21.10;99.90;;;;;;5091664;28;20111;-69
2023/07/28 08:37:33;;;;;;;5.80;2.90;;;21.40;99.90;;;;;;5091824;28;20038;-69
2023/07/28 08:39:59;;;;;;;3.45;1.83;;;21.60;99.90;;;;;;5091613;28;20127;-70
2023/07/28 08:42:25;;;;;;;4.57;1.85;;;21.70;99.90;;;;;;5091598;28;20456;-70
2023/07/28 08:44:52;;;;;;;2.35;1.70;;;21.90;99.90;;;;;;5091876;28;20081;-69
2023/07/28 08:47:18;;;;;;;2.35;1.90;;;21.90;99.90;;;;;;5091561;28;20053;-68
2023/07/28 08:49:44;;;;;;;4.53;1.60;;;21.90;99.90;;;;;;5091165;28;20142;-69
2023/07/28 08:52:10;;;;;;;3.78;1.70;;;22.00;99.90;;;;;;5091304;28;20149;-69
2023/07/28 08:54:36;;;;;;;4.22;1.95;;;22.10;99.90;;;;;;5091214;28;20494;-68
2023/07/28 08:57:02;;;;;;;3.45;1.92;;;22.20;99.90;;;;;;5091066;28;20098;-68
2023/07/28 08:59:29;;;;;;;2.47;1.48;;;22.20;99.90;;;;;;5091602;28;20031;-69
2023/07/28 09:01:59;;;;;;;4.05;2.00;;;22.20;99.90;;;;;;5091488;28;20226;-69
2023/07/28 09:04:25;;;;;;;1.50;1.40;;;22.50;99.90;;;;;;5092126;28;20042;-68
2023/07/28 09:06:51;;;;;;;8.60;4.13;;;22.60;99.90;;;;;;5091445;28;20119;-69
2023/07/28 09:09:20;;;;;;;1.60;1.42;;;23.00;99.90;;;;;;5091231;28;20024;-70
2023/07/28 09:11:50;;;;;;;2.97;1.83;;;22.90;99.90;;;;;;5091622;28;20112;-70
2023/07/28 09:14:20;;;;;;;4.53;1.45;;;22.70;99.90;;;;;;5090841;28;20078;-69
2023/07/28 09:16:47;;;;;;;1.63;1.52;;;22.60;99.90;;;;;;5090759;28;20031;-69
2023/07/28 09:19:13;;;;;;;1.40;1.30;;;22.50;99.90;;;;;;5090234;28;20043;-69
2023/07/28 09:21:42;;;;;;;1.88;1.42;;;22.70;99.90;;;;;;5090323;28;20035;-70
2023/07/28 09:24:10;;;;;;;1.45;1.35;;;23.50;99.90;;;;;;5090396;28;20024;-69
2023/07/28 09:26:45;;;;;;;1.50;1.20;;;24.60;99.90;;;;;;5091067;28;20020;-70
2023/07/28 09:29:16;;;;;;;6.30;1.83;;;25.30;99.90;;;;;;5089216;28;20043;-68
2023/07/28 09:31:42;;;;;;;4.43;3.10;;;25.60;99.90;;;;;;5090286;28;20040;-71
2023/07/28 09:34:09;;;;;;;1.40;1.30;;;26.00;99.80;;;;;;5090326;28;20040;-67
2023/07/28 09:36:36;;;;;;;2.85;1.50;;;25.80;98.60;;;;;;5089015;28;20415;-70
2023/07/28 09:39:03;;;;;;;1.48;1.38;;;25.80;98.70;;;;;;5089039;28;20118;-70
2023/07/28 09:41:34;;;;;;;3.30;1.63;;;25.00;99.10;;;;;;5090587;28;20012;-70
2023/07/28 09:43:59;;;;;;;1.85;1.38;;;24.90;99.90;;;;;;5089477;28;20032;-69
2023/07/28 09:46:33;;;;;;;2.25;1.38;;;25.50;99.90;;;;;;5090183;28;20401;-71
2023/07/28 09:49:03;;;;;;;1.50;1.40;;;25.40;99.30;;;;;;5090038;28;20043;-69
2023/07/28 09:51:31;;;;;;;1.45;1.35;;;25.40;98.70;;;;;;5089966;28;20515;-71
2023/07/28 09:54:09;;;;;;;2.53;1.45;;;25.50;98.20;;;;;;5090109;28;20519;-70
2023/07/28 09:56:36;;;;;;;1.33;1.17;;;25.00;98.20;;;;;;5090474;28;20371;-69
2023/07/28 09:59:04;;;;;;;2.15;1.70;;;24.90;98.20;;;;;;5090076;28;20424;-70
2023/07/28 10:01:30;;;;;;;;;;;24.80;98.90;;;;;;5090411;28;20047;-69
2023/07/28 10:03:56;;;;;;;2.17;1.98;;;24.70;98.80;;;;;;5089905;28;19914;-69
2023/07/28 10:06:24;;;;;;;4.57;1.33;;;24.60;99.20;;;;;;5089918;28;20442;-70
2023/07/28 10:08:51;;;;;;;1.50;1.40;;;24.50;99.30;;;;;;5090353;28;20024;-68
2023/07/28 10:11:18;;;;;;;1.90;1.50;;;24.20;99.70;;;;;;5089706;28;20032;-69
2023/07/28 10:13:46;;;;;;;2.08;1.20;;;24.20;99.60;;;;;;5089758;28;20079;-69
2023/07/28 10:16:14;;;;;;;;;;;24.30;99.30;;;;;;5090452;28;20032;-69
2023/07/28 10:18:40;;;;;;;1.85;1.75;;;24.50;99.50;;;;;;5089918;28;19977;-68
2023/07/28 10:21:10;;;;;;;2.45;1.60;;;24.40;99.20;;;;;;5089533;28;20514;-69
2023/07/28 10:23:38;;;;;;;2.28;1.52;;;24.40;99.60;;;;;;5090170;28;20077;-69
2023/07/28 10:26:07;;;;;;;1.90;1.58;;;24.40;99.30;;;;;;5088561;28;20059;-70
2023/07/28 10:28:38;;;;;;;5.68;4.50;;;24.40;99.50;;;;;;5089815;28;20055;-69
2023/07/28 10:31:06;;;;;;;3.33;2.13;;;24.60;99.70;;;;;;5093203;28;20429;-70
2023/07/28 10:33:36;;;;;;;1.60;1.50;;;24.60;99.50;;;;;;5092700;28;20366;-70
2023/07/28 10:36:32;;;;;;;4.75;1.75;;;24.60;99.50;;;;;;5093652;28;20104;-69
2023/07/28 10:39:14;;;;;;;2.30;1.67;;;24.40;99.30;;;;;;5093533;28;20032;-69
2023/07/28 10:41:59;;;;;;;1.60;1.50;;;23.90;99.50;;;;;;5094080;28;20023;-69
2023/07/28 10:44:25;;;;;;;1.70;1.48;;;23.80;99.70;;;;;;5093604;28;20075;-69
2023/07/28 10:46:51;;;;;;;1.80;1.30;;;23.80;99.60;;;;;;5093408;28;20059;-69
2023/07/28 10:49:17;;;;;;;6.43;1.52;;;24.00;99.80;;;;;;5093695;28;20036;-69
2023/07/28 10:51:42;;;;;;;2.33;1.40;;;24.20;99.40;;;;;;5093434;28;20532;-69
2023/07/28 10:54:08;;;;;;;1.75;1.15;;;24.00;99.00;;;;;;5093611;28;20088;-68
2023/07/28 10:56:34;;;;;;;1.77;1.20;;;24.00;99.00;;;;;;5093861;28;20024;-70
2023/07/28 10:59:02;;;;;;;1.58;1.35;;;24.00;99.00;;;;;;5093141;28;20474;-69
2023/07/28 11:01:45;;;;;;;1.98;1.60;;;23.90;98.90;;;;;;5093214;28;20039;-69
2023/07/28 11:04:17;;;;;;;2.75;1.35;;;23.80;99.20;;;;;;5093348;28;20489;-69
2023/07/28 11:06:48;;;;;;;4.45;1.65;;;24.00;98.90;;;;;;5093032;28;20039;-69
2023/07/28 11:09:15;;;;;;;2.22;1.50;;;24.10;99.20;;;;;;5093163;28;20582;-70
2023/07/28 11:11:42;;;;;;;8.27;3.35;;;24.20;98.80;;;;;;5093266;28;20489;-69
2023/07/28 11:14:09;;;;;;;3.03;1.15;;;24.20;98.80;;;;;;5091909;28;20058;-68
2023/07/28 11:16:41;;;;;;;1.35;1.15;;;24.00;98.90;;;;;;5092681;28;20053;-70
2023/07/28 11:19:10;;;;;;;2.05;1.70;;;24.10;98.80;;;;;;5092753;28;20169;-69
2023/07/28 11:21:37;;;;;;;4.45;1.70;;;24.10;98.60;;;;;;5091414;28;20074;-69
2023/07/28 11:24:04;;;;;;;1.95;1.45;;;24.20;98.70;;;;;;5091384;28;20411;-70
2023/07/28 11:26:30;;;;;;;7.15;3.85;;;24.30;98.80;;;;;;5093207;28;20344;-69
2023/07/28 11:28:56;;;;;;;2.65;1.67;;;24.50;98.60;;;;;;5092407;28;20024;-69
2023/07/28 11:31:28;;;;;;;1.83;1.45;;;24.80;98.30;;;;;;5074753;28;20115;-69
2023/07/28 11:33:54;;;;;;;1.90;1.50;;;24.80;97.80;;;;;;5091159;28;20044;-69
2023/07/28 11:36:27;;;;;;;2.58;1.50;;;25.00;97.70;;;;;;5092744;28;20028;-70
2023/07/28 11:38:54;;;;;;;3.08;1.70;;;25.00;97.50;;;;;;5092232;28;20031;-70
2023/07/28 11:41:21;;;;;;;3.55;1.50;;;25.00;97.50;;;;;;5091584;28;20016;-69
2023/07/28 11:43:50;;;;;;;2.53;2.33;;;25.00;97.60;;;;;;5092204;28;20484;-70
2023/07/28 11:46:39;;;;;;;5.45;4.45;;;25.20;97.70;;;;;;5092389;28;20039;-70
2023/07/28 11:49:18;;;;;;;6.75;4.32;;;25.40;97.60;;;;;;5092216;28;20104;-69
2023/07/28 11:51:46;;;;;;;4.97;2.92;;;25.30;97.30;;;;;;5092208;28;20401;-70
2023/07/28 11:54:16;;;;;;;;;;;25.40;97.10;;;;;;5092924;28;20089;-70
2023/07/28 11:56:43;;;;;;;3.13;1.67;;;25.30;97.00;;;;;;5092701;28;19908;-70
2023/07/28 11:59:18;;;;;;;3.83;2.03;;;25.40;97.10;;;;;;5092117;28;20034;-70
2023/07/28 12:01:57;;;;;;;2.70;1.90;;;25.20;96.70;;;;;;5090968;28;20659;-70
2023/07/28 12:04:25;;;;;;;1.92;1.38;;;25.10;97.00;;;;;;5092055;28;20028;-70
2023/07/28 12:07:27;;;;;;;3.97;2.03;;;25.10;96.90;;;;;;5091889;28;20344;-68
2023/07/28 12:09:55;;;;;;;2.20;1.58;;;25.10;97.00;;;;;;5084760;28;20334;-69
2023/07/28 12:12:23;;;;;;;1.75;1.42;;;25.20;97.00;;;;;;5091949;28;20035;-70
2023/07/28 12:14:51;;;;;;;3.33;1.50;;;25.20;96.70;;;;;;5092626;28;20719;-70
2023/07/28 12:17:18;;;;;;;2.53;1.88;;;25.10;96.80;;;;;;5091658;28;20031;-69
2023/07/28 12:20:07;;;;;;;3.95;1.77;;;25.20;96.60;;;;;;5090517;28;20036;-69
2023/07/28 12:22:33;;;;;;;4.03;1.65;;;25.30;96.30;;;;;;5091812;28;20024;-70
2023/07/28 12:24:59;;;;;;;2.97;1.70;;;25.20;96.20;;;;;;5091691;28;20503;-69
2023/07/28 12:27:26;;;;;;;3.03;1.33;;;25.30;96.10;;;;;;5091426;28;20388;-69
2023/07/28 12:29:52;;;;;;;2.15;1.50;;;25.20;96.10;;;;;;5091928;28;20362;-70
2023/07/28 12:32:18;;;;;;;4.20;2.08;;;25.50;96.30;;;;;;5091454;28;20060;-70
2023/07/28 12:34:44;;;;;;;2.72;1.33;;;25.60;96.10;;;;;;5091351;28;20039;-70
2023/07/28 12:37:10;;;;;;;1.80;1.65;;;25.60;96.20;;;;;;5091442;28;20047;-69
2023/07/28 12:39:40;;;;;;;2.28;1.40;;;25.80;96.20;;;;;;5090935;28;20110;-69
2023/07/28 12:42:07;;;;;;;2.72;1.38;;;25.90;95.50;;;;;;5091475;28;20067;-69
2023/07/28 12:44:33;;;;;;;4.07;1.50;;;25.70;95.10;;;;;;5091824;28;20024;-69
2023/07/28 12:46:59;;;;;;;1.40;1.30;;;25.70;95.60;;;;;;5091011;28;20035;-70